sensor_id;sensor_type;location;lat;lon;timestamp;temperature;humidity
22795;DHT22;11564;50.920;11.612;2023-07-02T00:01:03;17.30;99.90
22795;DHT22;11564;50.920;11.612;2023-07-02T00:03:29;17.20;99.90
22795;DHT22;11564;50.920;11.612;2023-07-02T00:05:55;17.20;99.90
22795;DHT22;11564;50.920;11.612;2023-07-02T00:08:22;17.20;99.90
22795;DHT22;11564;50.920;11.612;2023-07-02T00:10:48;17.20;99.90
22795;DHT22;11564;50.920;11.612;2023-07-02T00:13:14;17.20;99.90
22795;DHT22;11564;50.920;11.612;2023-07-02T00:15:40;17.10;99.90
22795;DHT22;11564;50.920;11.612;2023-07-02T00:18:06;17.20;99.90
22795;DHT22;11564;50.920;11.612;2023-07-02T00:20:33;17.10;99.90
22795;DHT22;11564;50.920;11.612;2023-07-02T00:23:03;17.00;99.90
22795;DHT22;11564;50.920;11.612;2023-07-02T00:25:29;17.00;99.90
22795;DHT22;11564;50.920;11.612;2023-07-02T00:27:55;17.00;99.90
22795;DHT22;11564;50.920;11.612;2023-07-02T00:30:21;16.90;99.90
22795;DHT22;11564;50.920;11.612;2023-07-02T00:32:46;16.90;99.90
22795;DHT22;11564;50.920;11.612;2023-07-02T00:35:12;16.80;99.90
22795;DHT22;11564;50.920;11.612;2023-07-02T00:37:37;16.60;99.90
22795;DHT22;11564;50.920;11.612;2023-07-02T00:40:04;16.60;99.90
22795;DHT22;11564;50.920;11.612;2023-07-02T00:42:29;16.50;99.90
22795;DHT22;11564;50.920;11.612;2023-07-02T00:44:56;16.40;99.90
22795;DHT22;11564;50.920;11.612;2023-07-02T00:47:23;16.30;99.90
22795;DHT22;11564;50.920;11.612;2023-07-02T00:49:50;16.20;99.90
22795;DHT22;11564;50.920;11.612;2023-07-02T00:52:16;16.20;99.90
22795;DHT22;11564;50.920;11.612;2023-07-02T00:54:44;16.20;99.90
22795;DHT22;11564;50.920;11.612;2023-07-02T00:57:09;16.30;99.90
22795;DHT22;11564;50.920;11.612;2023-07-02T00:59:35;16.40;99.90
22795;DHT22;11564;50.920;11.612;2023-07-02T01:02:01;16.50;99.90
22795;DHT22;11564;50.920;11.612;2023-07-02T01:04:27;16.50;99.90
22795;DHT22;11564;50.920;11.612;2023-07-02T01:06:54;16.70;99.90
22795;DHT22;11564;50.920;11.612;2023-07-02T01:09:23;16.80;99.90
22795;DHT22;11564;50.920;11.612;2023-07-02T01:12:04;16.80;99.90
22795;DHT22;11564;50.920;11.612;2023-07-02T01:14:41;16.90;99.90
22795;DHT22;11564;50.920;11.612;2023-07-02T01:17:09;16.90;99.90
22795;DHT22;11564;50.920;11.612;2023-07-02T01:19:54;16.90;99.90
22795;DHT22;11564;50.920;11.612;2023-07-02T01:22:26;16.80;99.90
22795;DHT22;11564;50.920;11.612;2023-07-02T01:24:52;16.80;99.90
22795;DHT22;11564;50.920;11.612;2023-07-02T01:27:19;16.80;99.90
22795;DHT22;11564;50.920;11.612;2023-07-02T01:29:45;16.80;99.90
22795;DHT22;11564;50.920;11.612;2023-07-02T01:32:15;16.80;99.90
22795;DHT22;11564;50.920;11.612;2023-07-02T01:34:41;16.80;99.90
22795;DHT22;11564;50.920;11.612;2023-07-02T01:37:09;16.80;99.90
22795;DHT22;11564;50.920;11.612;2023-07-02T01:39:35;16.90;99.90
22795;DHT22;11564;50.920;11.612;2023-07-02T01:42:11;16.90;99.90
22795;DHT22;11564;50.920;11.612;2023-07-02T01:44:38;16.90;99.90
22795;DHT22;11564;50.920;11.612;2023-07-02T01:47:04;17.00;99.90
22795;DHT22;11564;50.920;11.612;2023-07-02T01:49:30;17.10;99.90
22795;DHT22;11564;50.920;11.612;2023-07-02T01:51:57;17.00;99.90
22795;DHT22;11564;50.920;11.612;2023-07-02T01:54:25;17.00;99.90
22795;DHT22;11564;50.920;11.612;2023-07-02T01:56:56;17.00;99.90
22795;DHT22;11564;50.920;11.612;2023-07-02T01:59:22;17.00;99.90
22795;DHT22;11564;50.920;11.612;2023-07-02T02:01:48;16.90;99.90
22795;DHT22;11564;50.920;11.612;2023-07-02T02:04:13;17.00;99.90
22795;DHT22;11564;50.920;11.612;2023-07-02T02:06:40;16.90;99.90
22795;DHT22;11564;50.920;11.612;2023-07-02T02:09:06;16.90;99.90
22795;DHT22;11564;50.920;11.612;2023-07-02T02:11:34;17.00;99.90
22795;DHT22;11564;50.920;11.612;2023-07-02T02:13:59;17.00;99.90
22795;DHT22;11564;50.920;11.612;2023-07-02T02:16:28;17.00;99.90
22795;DHT22;11564;50.920;11.612;2023-07-02T02:18:54;17.00;99.90
22795;DHT22;11564;50.920;11.612;2023-07-02T02:21:21;16.90;99.90
22795;DHT22;11564;50.920;11.612;2023-07-02T02:23:47;16.80;99.90
22795;DHT22;11564;50.920;11.612;2023-07-02T02:26:13;16.70;99.90
22795;DHT22;11564;50.920;11.612;2023-07-02T02:28:39;16.60;99.90
22795;DHT22;11564;50.920;11.612;2023-07-02T02:31:05;16.50;99.90
22795;DHT22;11564;50.920;11.612;2023-07-02T02:33:31;16.40;99.90
22795;DHT22;11564;50.920;11.612;2023-07-02T02:35:57;16.40;99.90
22795;DHT22;11564;50.920;11.612;2023-07-02T02:38:23;16.30;99.90
22795;DHT22;11564;50.920;11.612;2023-07-02T02:40:48;16.20;99.90
22795;DHT22;11564;50.920;11.612;2023-07-02T02:43:14;16.20;99.90
22795;DHT22;11564;50.920;11.612;2023-07-02T02:45:42;16.20;99.90
22795;DHT22;11564;50.920;11.612;2023-07-02T02:48:07;16.20;99.90
22795;DHT22;11564;50.920;11.612;2023-07-02T02:50:33;16.20;99.90
22795;DHT22;11564;50.920;11.612;2023-07-02T02:52:59;16.20;99.90
22795;DHT22;11564;50.920;11.612;2023-07-02T02:55:24;16.20;99.90
22795;DHT22;11564;50.920;11.612;2023-07-02T02:57:50;16.10;99.90
22795;DHT22;11564;50.920;11.612;2023-07-02T03:00:16;16.00;99.90
22795;DHT22;11564;50.920;11.612;2023-07-02T03:02:42;16.00;99.90
22795;DHT22;11564;50.920;11.612;2023-07-02T03:05:08;15.90;99.90
22795;DHT22;11564;50.920;11.612;2023-07-02T03:07:34;16.00;99.90
22795;DHT22;11564;50.920;11.612;2023-07-02T03:10:01;15.90;99.90
22795;DHT22;11564;50.920;11.612;2023-07-02T03:12:27;15.90;99.90
22795;DHT22;11564;50.920;11.612;2023-07-02T03:14:52;15.90;99.90
22795;DHT22;11564;50.920;11.612;2023-07-02T03:17:21;15.90;99.90
22795;DHT22;11564;50.920;11.612;2023-07-02T03:19:47;15.90;99.90
22795;DHT22;11564;50.920;11.612;2023-07-02T03:22:13;15.90;99.90
22795;DHT22;11564;50.920;11.612;2023-07-02T03:24:39;15.80;99.90
22795;DHT22;11564;50.920;11.612;2023-07-02T03:27:05;15.90;99.90
22795;DHT22;11564;50.920;11.612;2023-07-02T03:29:31;15.80;99.90
22795;DHT22;11564;50.920;11.612;2023-07-02T03:31:57;15.90;99.90
22795;DHT22;11564;50.920;11.612;2023-07-02T03:34:22;15.90;99.90
22795;DHT22;11564;50.920;11.612;2023-07-02T03:36:49;15.90;99.90
22795;DHT22;11564;50.920;11.612;2023-07-02T03:39:15;16.00;99.90
22795;DHT22;11564;50.920;11.612;2023-07-02T03:41:41;15.90;99.90
22795;DHT22;11564;50.920;11.612;2023-07-02T03:44:07;15.90;99.90
22795;DHT22;11564;50.920;11.612;2023-07-02T03:46:33;15.90;99.90
22795;DHT22;11564;50.920;11.612;2023-07-02T03:48:58;15.90;99.90
22795;DHT22;11564;50.920;11.612;2023-07-02T03:51:24;15.90;99.90
22795;DHT22;11564;50.920;11.612;2023-07-02T03:53:50;15.90;99.90
22795;DHT22;11564;50.920;11.612;2023-07-02T03:56:15;15.90;99.90
22795;DHT22;11564;50.920;11.612;2023-07-02T03:58:41;15.90;99.90
22795;DHT22;11564;50.920;11.612;2023-07-02T04:01:07;16.00;99.90
22795;DHT22;11564;50.920;11.612;2023-07-02T04:03:32;16.00;99.90
22795;DHT22;11564;50.920;11.612;2023-07-02T04:05:58;16.00;99.90
22795;DHT22;11564;50.920;11.612;2023-07-02T04:08:23;15.90;99.90
22795;DHT22;11564;50.920;11.612;2023-07-02T04:10:54;16.00;99.90
22795;DHT22;11564;50.920;11.612;2023-07-02T04:13:20;16.00;99.90
22795;DHT22;11564;50.920;11.612;2023-07-02T04:15:45;16.00;99.90
22795;DHT22;11564;50.920;11.612;2023-07-02T04:18:11;16.00;99.90
22795;DHT22;11564;50.920;11.612;2023-07-02T04:20:36;16.00;99.90
22795;DHT22;11564;50.920;11.612;2023-07-02T04:23:05;16.10;99.90
22795;DHT22;11564;50.920;11.612;2023-07-02T04:25:30;16.10;99.90
22795;DHT22;11564;50.920;11.612;2023-07-02T04:27:56;16.20;99.90
22795;DHT22;11564;50.920;11.612;2023-07-02T04:30:24;16.20;99.90
22795;DHT22;11564;50.920;11.612;2023-07-02T04:32:50;16.40;99.90
22795;DHT22;11564;50.920;11.612;2023-07-02T04:35:16;16.40;99.90
22795;DHT22;11564;50.920;11.612;2023-07-02T04:37:42;16.50;99.90
22795;DHT22;11564;50.920;11.612;2023-07-02T04:40:08;16.50;99.90
22795;DHT22;11564;50.920;11.612;2023-07-02T04:42:37;16.60;99.90
22795;DHT22;11564;50.920;11.612;2023-07-02T04:45:07;16.60;99.90
22795;DHT22;11564;50.920;11.612;2023-07-02T04:47:34;16.80;99.90
22795;DHT22;11564;50.920;11.612;2023-07-02T04:50:00;16.70;99.90
22795;DHT22;11564;50.920;11.612;2023-07-02T04:52:26;16.80;99.90
22795;DHT22;11564;50.920;11.612;2023-07-02T04:54:52;16.90;99.90
22795;DHT22;11564;50.920;11.612;2023-07-02T04:57:18;16.90;99.90
22795;DHT22;11564;50.920;11.612;2023-07-02T04:59:43;16.90;99.90
22795;DHT22;11564;50.920;11.612;2023-07-02T05:02:09;16.90;99.90
22795;DHT22;11564;50.920;11.612;2023-07-02T05:04:35;17.00;99.90
22795;DHT22;11564;50.920;11.612;2023-07-02T05:07:01;17.10;99.90
22795;DHT22;11564;50.920;11.612;2023-07-02T05:09:26;17.10;99.90
22795;DHT22;11564;50.920;11.612;2023-07-02T05:11:52;17.10;99.90
22795;DHT22;11564;50.920;11.612;2023-07-02T05:14:18;17.20;99.90
22795;DHT22;11564;50.920;11.612;2023-07-02T05:16:43;17.10;99.90
22795;DHT22;11564;50.920;11.612;2023-07-02T05:19:09;17.20;99.90
22795;DHT22;11564;50.920;11.612;2023-07-02T05:21:35;17.20;99.90
22795;DHT22;11564;50.920;11.612;2023-07-02T05:24:00;17.30;99.90
22795;DHT22;11564;50.920;11.612;2023-07-02T05:26:26;17.40;99.90
22795;DHT22;11564;50.920;11.612;2023-07-02T05:28:52;17.40;99.90
22795;DHT22;11564;50.920;11.612;2023-07-02T05:31:18;17.40;99.90
22795;DHT22;11564;50.920;11.612;2023-07-02T05:33:44;17.50;99.90
22795;DHT22;11564;50.920;11.612;2023-07-02T05:36:09;17.50;99.90
22795;DHT22;11564;50.920;11.612;2023-07-02T05:38:35;17.50;99.90
22795;DHT22;11564;50.920;11.612;2023-07-02T05:41:02;17.60;99.90
22795;DHT22;11564;50.920;11.612;2023-07-02T05:43:28;17.70;99.90
22795;DHT22;11564;50.920;11.612;2023-07-02T05:45:54;17.60;99.90
22795;DHT22;11564;50.920;11.612;2023-07-02T05:48:20;17.70;99.90
22795;DHT22;11564;50.920;11.612;2023-07-02T05:50:45;17.70;99.90
22795;DHT22;11564;50.920;11.612;2023-07-02T05:53:11;17.70;99.90
22795;DHT22;11564;50.920;11.612;2023-07-02T05:55:37;17.70;99.90
22795;DHT22;11564;50.920;11.612;2023-07-02T05:58:03;17.60;99.90
22795;DHT22;11564;50.920;11.612;2023-07-02T06:00:29;17.60;99.90
22795;DHT22;11564;50.920;11.612;2023-07-02T06:02:55;17.60;99.90
22795;DHT22;11564;50.920;11.612;2023-07-02T06:05:20;17.70;99.90
22795;DHT22;11564;50.920;11.612;2023-07-02T06:07:46;17.70;99.90
22795;DHT22;11564;50.920;11.612;2023-07-02T06:10:12;17.70;99.90
22795;DHT22;11564;50.920;11.612;2023-07-02T06:12:38;17.80;99.90
22795;DHT22;11564;50.920;11.612;2023-07-02T06:15:04;17.80;99.90
22795;DHT22;11564;50.920;11.612;2023-07-02T06:17:30;17.80;99.90
22795;DHT22;11564;50.920;11.612;2023-07-02T06:19:56;17.90;99.90
22795;DHT22;11564;50.920;11.612;2023-07-02T06:22:22;18.10;99.90
22795;DHT22;11564;50.920;11.612;2023-07-02T06:24:48;18.10;99.90
22795;DHT22;11564;50.920;11.612;2023-07-02T06:27:14;18.00;99.90
22795;DHT22;11564;50.920;11.612;2023-07-02T06:29:40;18.10;99.90
22795;DHT22;11564;50.920;11.612;2023-07-02T06:32:06;18.00;99.90
22795;DHT22;11564;50.920;11.612;2023-07-02T06:34:31;18.00;99.90
22795;DHT22;11564;50.920;11.612;2023-07-02T06:36:57;17.90;99.90
22795;DHT22;11564;50.920;11.612;2023-07-02T06:39:23;17.90;99.90
22795;DHT22;11564;50.920;11.612;2023-07-02T06:41:48;17.80;99.90
22795;DHT22;11564;50.920;11.612;2023-07-02T06:44:14;17.80;99.90
22795;DHT22;11564;50.920;11.612;2023-07-02T06:46:40;17.80;99.90
22795;DHT22;11564;50.920;11.612;2023-07-02T06:49:05;17.80;99.90
22795;DHT22;11564;50.920;11.612;2023-07-02T06:51:31;17.80;99.90
22795;DHT22;11564;50.920;11.612;2023-07-02T06:53:56;18.00;99.90
22795;DHT22;11564;50.920;11.612;2023-07-02T06:56:22;18.20;99.90
22795;DHT22;11564;50.920;11.612;2023-07-02T06:58:48;18.40;99.90
22795;DHT22;11564;50.920;11.612;2023-07-02T07:01:13;18.70;99.90
22795;DHT22;11564;50.920;11.612;2023-07-02T07:03:39;18.60;99.90
22795;DHT22;11564;50.920;11.612;2023-07-02T07:06:05;18.60;99.90
22795;DHT22;11564;50.920;11.612;2023-07-02T07:08:30;18.60;99.90
22795;DHT22;11564;50.920;11.612;2023-07-02T07:10:56;18.60;99.90
22795;DHT22;11564;50.920;11.612;2023-07-02T07:13:21;18.60;99.90
22795;DHT22;11564;50.920;11.612;2023-07-02T07:15:47;18.70;99.90
22795;DHT22;11564;50.920;11.612;2023-07-02T07:18:13;18.90;99.90
22795;DHT22;11564;50.920;11.612;2023-07-02T07:20:39;19.00;99.90
22795;DHT22;11564;50.920;11.612;2023-07-02T07:23:08;19.10;99.90
22795;DHT22;11564;50.920;11.612;2023-07-02T07:25:34;19.20;99.90
22795;DHT22;11564;50.920;11.612;2023-07-02T07:28:00;19.30;99.90
22795;DHT22;11564;50.920;11.612;2023-07-02T07:30:26;19.30;99.90
22795;DHT22;11564;50.920;11.612;2023-07-02T07:32:52;19.40;99.90
22795;DHT22;11564;50.920;11.612;2023-07-02T07:35:20;19.40;99.90
22795;DHT22;11564;50.920;11.612;2023-07-02T07:37:47;19.40;99.90
22795;DHT22;11564;50.920;11.612;2023-07-02T07:40:13;19.40;99.90
22795;DHT22;11564;50.920;11.612;2023-07-02T07:42:39;19.50;99.90
22795;DHT22;11564;50.920;11.612;2023-07-02T07:45:05;19.60;99.90
22795;DHT22;11564;50.920;11.612;2023-07-02T07:47:31;19.70;99.90
22795;DHT22;11564;50.920;11.612;2023-07-02T07:49:56;19.90;99.90
22795;DHT22;11564;50.920;11.612;2023-07-02T07:52:22;20.10;99.90
22795;DHT22;11564;50.920;11.612;2023-07-02T07:54:47;20.30;99.90
22795;DHT22;11564;50.920;11.612;2023-07-02T07:57:14;20.60;99.90
22795;DHT22;11564;50.920;11.612;2023-07-02T07:59:39;20.80;99.90
22795;DHT22;11564;50.920;11.612;2023-07-02T08:02:05;20.80;99.90
22795;DHT22;11564;50.920;11.612;2023-07-02T08:04:31;21.00;99.90
22795;DHT22;11564;50.920;11.612;2023-07-02T08:06:57;20.80;99.90
22795;DHT22;11564;50.920;11.612;2023-07-02T08:09:24;20.80;99.90
22795;DHT22;11564;50.920;11.612;2023-07-02T08:11:50;20.60;99.90
22795;DHT22;11564;50.920;11.612;2023-07-02T08:14:19;20.80;99.90
22795;DHT22;11564;50.920;11.612;2023-07-02T08:16:45;20.80;99.90
22795;DHT22;11564;50.920;11.612;2023-07-02T08:19:10;20.80;99.90
22795;DHT22;11564;50.920;11.612;2023-07-02T08:21:36;20.60;99.90
22795;DHT22;11564;50.920;11.612;2023-07-02T08:24:02;20.50;99.90
22795;DHT22;11564;50.920;11.612;2023-07-02T08:26:28;20.20;99.90
22795;DHT22;11564;50.920;11.612;2023-07-02T08:28:54;20.20;99.90
22795;DHT22;11564;50.920;11.612;2023-07-02T08:31:19;20.30;99.90
22795;DHT22;11564;50.920;11.612;2023-07-02T08:33:45;20.40;99.90
22795;DHT22;11564;50.920;11.612;2023-07-02T08:36:11;20.50;99.90
22795;DHT22;11564;50.920;11.612;2023-07-02T08:38:36;20.40;99.90
22795;DHT22;11564;50.920;11.612;2023-07-02T08:41:05;20.10;99.90
22795;DHT22;11564;50.920;11.612;2023-07-02T08:43:30;20.30;99.90
22795;DHT22;11564;50.920;11.612;2023-07-02T08:45:57;20.40;99.90
22795;DHT22;11564;50.920;11.612;2023-07-02T08:48:23;20.40;99.90
22795;DHT22;11564;50.920;11.612;2023-07-02T08:50:49;20.30;99.90
22795;DHT22;11564;50.920;11.612;2023-07-02T08:53:16;20.30;99.90
22795;DHT22;11564;50.920;11.612;2023-07-02T08:55:41;20.40;99.90
22795;DHT22;11564;50.920;11.612;2023-07-02T08:58:07;20.50;99.90
22795;DHT22;11564;50.920;11.612;2023-07-02T09:00:33;20.70;99.90
22795;DHT22;11564;50.920;11.612;2023-07-02T09:03:13;20.70;99.70
22795;DHT22;11564;50.920;11.612;2023-07-02T09:05:51;20.70;99.50
22795;DHT22;11564;50.920;11.612;2023-07-02T09:08:27;20.70;99.90
22795;DHT22;11564;50.920;11.612;2023-07-02T09:10:53;20.70;99.90
22795;DHT22;11564;50.920;11.612;2023-07-02T09:13:19;20.60;99.90
22795;DHT22;11564;50.920;11.612;2023-07-02T09:15:45;20.70;99.90
22795;DHT22;11564;50.920;11.612;2023-07-02T09:20:42;21.00;99.50
22795;DHT22;11564;50.920;11.612;2023-07-02T09:23:08;21.10;98.50
22795;DHT22;11564;50.920;11.612;2023-07-02T09:25:38;21.40;99.00
22795;DHT22;11564;50.920;11.612;2023-07-02T09:28:24;21.40;96.80
22795;DHT22;11564;50.920;11.612;2023-07-02T09:30:57;21.50;97.50
22795;DHT22;11564;50.920;11.612;2023-07-02T09:33:28;21.80;96.40
22795;DHT22;11564;50.920;11.612;2023-07-02T09:35:54;22.00;96.00
22795;DHT22;11564;50.920;11.612;2023-07-02T09:38:21;22.20;94.80
22795;DHT22;11564;50.920;11.612;2023-07-02T09:40:49;22.10;94.40
22795;DHT22;11564;50.920;11.612;2023-07-02T09:43:16;21.40;95.40
22795;DHT22;11564;50.920;11.612;2023-07-02T09:45:44;21.20;94.80
22795;DHT22;11564;50.920;11.612;2023-07-02T09:48:13;21.00;95.10
22795;DHT22;11564;50.920;11.612;2023-07-02T09:50:43;21.00;95.40
22795;DHT22;11564;50.920;11.612;2023-07-02T09:53:09;21.30;96.10
22795;DHT22;11564;50.920;11.612;2023-07-02T09:55:36;21.30;95.90
22795;DHT22;11564;50.920;11.612;2023-07-02T09:58:02;21.50;94.70
22795;DHT22;11564;50.920;11.612;2023-07-02T10:00:28;21.50;92.80
22795;DHT22;11564;50.920;11.612;2023-07-02T10:02:53;21.50;93.90
22795;DHT22;11564;50.920;11.612;2023-07-02T10:05:29;21.40;93.00
22795;DHT22;11564;50.920;11.612;2023-07-02T10:08:12;21.40;93.50
22795;DHT22;11564;50.920;11.612;2023-07-02T10:10:39;21.50;93.80
22795;DHT22;11564;50.920;11.612;2023-07-02T10:13:05;21.40;94.20
22795;DHT22;11564;50.920;11.612;2023-07-02T10:15:31;21.70;95.10
22795;DHT22;11564;50.920;11.612;2023-07-02T10:18:02;22.00;94.50
22795;DHT22;11564;50.920;11.612;2023-07-02T10:20:39;22.50;94.80
22795;DHT22;11564;50.920;11.612;2023-07-02T10:23:06;22.50;94.00
22795;DHT22;11564;50.920;11.612;2023-07-02T10:25:34;22.30;92.40
22795;DHT22;11564;50.920;11.612;2023-07-02T10:28:01;22.00;92.90
22795;DHT22;11564;50.920;11.612;2023-07-02T10:30:37;21.80;93.80
22795;DHT22;11564;50.920;11.612;2023-07-02T10:33:09;21.70;92.70
22795;DHT22;11564;50.920;11.612;2023-07-02T10:35:36;21.30;92.60
22795;DHT22;11564;50.920;11.612;2023-07-02T10:38:02;21.40;92.10
22795;DHT22;11564;50.920;11.612;2023-07-02T10:40:28;21.30;92.60
22795;DHT22;11564;50.920;11.612;2023-07-02T10:42:54;21.50;93.10
22795;DHT22;11564;50.920;11.612;2023-07-02T10:45:21;21.70;93.60
22795;DHT22;11564;50.920;11.612;2023-07-02T10:47:55;21.80;93.90
22795;DHT22;11564;50.920;11.612;2023-07-02T10:50:21;21.90;94.00
22795;DHT22;11564;50.920;11.612;2023-07-02T10:52:48;21.70;93.10
22795;DHT22;11564;50.920;11.612;2023-07-02T10:55:27;21.40;93.30
22795;DHT22;11564;50.920;11.612;2023-07-02T10:58:06;21.50;94.00
22795;DHT22;11564;50.920;11.612;2023-07-02T11:00:33;21.70;94.40
22795;DHT22;11564;50.920;11.612;2023-07-02T11:02:59;21.70;93.00
22795;DHT22;11564;50.920;11.612;2023-07-02T11:05:25;22.00;92.10
22795;DHT22;11564;50.920;11.612;2023-07-02T11:07:51;22.30;92.20
22795;DHT22;11564;50.920;11.612;2023-07-02T11:10:23;22.50;91.70
22795;DHT22;11564;50.920;11.612;2023-07-02T11:12:48;22.80;92.30
22795;DHT22;11564;50.920;11.612;2023-07-02T11:15:16;22.70;91.30
22795;DHT22;11564;50.920;11.612;2023-07-02T11:17:45;22.10;89.00
22795;DHT22;11564;50.920;11.612;2023-07-02T11:20:11;22.20;89.20
22795;DHT22;11564;50.920;11.612;2023-07-02T11:22:38;22.40;89.40
22795;DHT22;11564;50.920;11.612;2023-07-02T11:25:20;22.50;88.80
22795;DHT22;11564;50.920;11.612;2023-07-02T11:27:46;22.70;89.60
22795;DHT22;11564;50.920;11.612;2023-07-02T11:30:12;22.90;89.40
22795;DHT22;11564;50.920;11.612;2023-07-02T11:32:52;22.80;89.60
22795;DHT22;11564;50.920;11.612;2023-07-02T11:35:18;22.70;86.10
22795;DHT22;11564;50.920;11.612;2023-07-02T11:37:44;23.00;88.00
22795;DHT22;11564;50.920;11.612;2023-07-02T11:40:11;23.10;85.50
22795;DHT22;11564;50.920;11.612;2023-07-02T11:42:38;23.30;86.50
22795;DHT22;11564;50.920;11.612;2023-07-02T11:45:03;23.30;85.50
22795;DHT22;11564;50.920;11.612;2023-07-02T11:47:29;23.30;85.70
22795;DHT22;11564;50.920;11.612;2023-07-02T11:49:55;23.10;85.40
22795;DHT22;11564;50.920;11.612;2023-07-02T11:52:21;22.70;83.30
22795;DHT22;11564;50.920;11.612;2023-07-02T11:54:47;22.40;85.40
22795;DHT22;11564;50.920;11.612;2023-07-02T11:57:13;22.40;86.00
22795;DHT22;11564;50.920;11.612;2023-07-02T11:59:39;22.50;86.20
22795;DHT22;11564;50.920;11.612;2023-07-02T12:02:05;22.70;85.00
22795;DHT22;11564;50.920;11.612;2023-07-02T12:04:31;22.80;84.00
22795;DHT22;11564;50.920;11.612;2023-07-02T12:06:56;22.30;81.90
22795;DHT22;11564;50.920;11.612;2023-07-02T12:09:22;22.30;83.70
22795;DHT22;11564;50.920;11.612;2023-07-02T12:11:48;22.30;83.20
22795;DHT22;11564;50.920;11.612;2023-07-02T12:14:13;22.70;85.10
22795;DHT22;11564;50.920;11.612;2023-07-02T12:16:39;23.30;85.00
22795;DHT22;11564;50.920;11.612;2023-07-02T12:19:04;23.50;82.50
22795;DHT22;11564;50.920;11.612;2023-07-02T12:21:30;23.50;83.10
22795;DHT22;11564;50.920;11.612;2023-07-02T12:23:56;23.10;82.60
22795;DHT22;11564;50.920;11.612;2023-07-02T12:26:21;22.70;84.00
22795;DHT22;11564;50.920;11.612;2023-07-02T12:28:47;22.40;84.40
22795;DHT22;11564;50.920;11.612;2023-07-02T12:31:12;22.00;82.60
22795;DHT22;11564;50.920;11.612;2023-07-02T12:33:39;22.10;83.20
22795;DHT22;11564;50.920;11.612;2023-07-02T12:36:05;22.30;83.00
22795;DHT22;11564;50.920;11.612;2023-07-02T12:38:30;22.60;84.40
22795;DHT22;11564;50.920;11.612;2023-07-02T12:40:56;22.80;83.20
22795;DHT22;11564;50.920;11.612;2023-07-02T12:43:22;23.30;81.20
22795;DHT22;11564;50.920;11.612;2023-07-02T12:45:47;23.50;80.30
22795;DHT22;11564;50.920;11.612;2023-07-02T12:48:13;24.20;81.70
22795;DHT22;11564;50.920;11.612;2023-07-02T12:50:39;24.40;80.30
22795;DHT22;11564;50.920;11.612;2023-07-02T12:53:05;24.30;78.80
22795;DHT22;11564;50.920;11.612;2023-07-02T12:55:31;24.00;78.90
22795;DHT22;11564;50.920;11.612;2023-07-02T12:57:56;23.90;78.90
22795;DHT22;11564;50.920;11.612;2023-07-02T13:00:22;23.80;80.50
22795;DHT22;11564;50.920;11.612;2023-07-02T13:02:48;24.00;80.60
22795;DHT22;11564;50.920;11.612;2023-07-02T13:05:14;23.80;80.00
22795;DHT22;11564;50.920;11.612;2023-07-02T13:07:40;23.10;77.90
22795;DHT22;11564;50.920;11.612;2023-07-02T13:10:06;23.00;77.20
22795;DHT22;11564;50.920;11.612;2023-07-02T13:12:32;23.30;78.00
22795;DHT22;11564;50.920;11.612;2023-07-02T13:14:58;23.90;76.90
22795;DHT22;11564;50.920;11.612;2023-07-02T13:17:23;24.60;76.70
22795;DHT22;11564;50.920;11.612;2023-07-02T13:19:49;24.80;75.60
22795;DHT22;11564;50.920;11.612;2023-07-02T13:22:15;24.90;75.00
22795;DHT22;11564;50.920;11.612;2023-07-02T13:24:40;24.90;77.20
22795;DHT22;11564;50.920;11.612;2023-07-02T13:27:11;25.80;74.30
22795;DHT22;11564;50.920;11.612;2023-07-02T13:29:38;25.00;74.70
22795;DHT22;11564;50.920;11.612;2023-07-02T13:32:04;24.40;75.80
22795;DHT22;11564;50.920;11.612;2023-07-02T13:34:29;25.90;74.50
22795;DHT22;11564;50.920;11.612;2023-07-02T13:36:55;25.20;75.00
22795;DHT22;11564;50.920;11.612;2023-07-02T13:39:21;24.20;77.50
22795;DHT22;11564;50.920;11.612;2023-07-02T13:41:47;23.50;77.40
22795;DHT22;11564;50.920;11.612;2023-07-02T13:44:13;22.70;78.10
22795;DHT22;11564;50.920;11.612;2023-07-02T13:46:39;22.50;79.50
22795;DHT22;11564;50.920;11.612;2023-07-02T13:49:05;22.40;79.50
22795;DHT22;11564;50.920;11.612;2023-07-02T13:51:31;22.50;80.20
22795;DHT22;11564;50.920;11.612;2023-07-02T13:53:56;22.70;80.20
22795;DHT22;11564;50.920;11.612;2023-07-02T13:56:22;23.30;82.10
22795;DHT22;11564;50.920;11.612;2023-07-02T14:01:23;24.60;74.40
22795;DHT22;11564;50.920;11.612;2023-07-02T14:03:49;26.10;70.80
22795;DHT22;11564;50.920;11.612;2023-07-02T14:06:15;27.20;68.90
22795;DHT22;11564;50.920;11.612;2023-07-02T14:08:41;29.50;66.60
22795;DHT22;11564;50.920;11.612;2023-07-02T14:11:07;28.50;63.40
22795;DHT22;11564;50.920;11.612;2023-07-02T14:13:33;26.80;66.00
22795;DHT22;11564;50.920;11.612;2023-07-02T14:15:59;25.80;69.40
22795;DHT22;11564;50.920;11.612;2023-07-02T14:18:25;24.90;70.30
22795;DHT22;11564;50.920;11.612;2023-07-02T14:20:51;24.20;72.40
22795;DHT22;11564;50.920;11.612;2023-07-02T14:23:17;23.70;73.40
22795;DHT22;11564;50.920;11.612;2023-07-02T14:25:42;24.40;74.40
22795;DHT22;11564;50.920;11.612;2023-07-02T14:28:08;26.50;71.60
22795;DHT22;11564;50.920;11.612;2023-07-02T14:30:35;28.80;68.10
22795;DHT22;11564;50.920;11.612;2023-07-02T14:33:01;29.30;64.20
22795;DHT22;11564;50.920;11.612;2023-07-02T14:35:26;27.20;66.60
22795;DHT22;11564;50.920;11.612;2023-07-02T14:37:54;26.20;69.60
22795;DHT22;11564;50.920;11.612;2023-07-02T14:40:20;28.00;68.40
22795;DHT22;11564;50.920;11.612;2023-07-02T14:42:46;29.90;65.10
22795;DHT22;11564;50.920;11.612;2023-07-02T14:45:11;31.50;61.90
22795;DHT22;11564;50.920;11.612;2023-07-02T14:47:38;31.20;61.70
22795;DHT22;11564;50.920;11.612;2023-07-02T14:50:04;29.90;62.30
22795;DHT22;11564;50.920;11.612;2023-07-02T14:52:30;27.60;64.90
22795;DHT22;11564;50.920;11.612;2023-07-02T14:54:56;28.60;65.20
22795;DHT22;11564;50.920;11.612;2023-07-02T14:57:25;30.00;61.60
22795;DHT22;11564;50.920;11.612;2023-07-02T14:59:50;29.40;62.60
22795;DHT22;11564;50.920;11.612;2023-07-02T15:02:17;30.80;60.80
22795;DHT22;11564;50.920;11.612;2023-07-02T15:04:43;31.10;60.10
22795;DHT22;11564;50.920;11.612;2023-07-02T15:07:09;31.50;59.90
22795;DHT22;11564;50.920;11.612;2023-07-02T15:09:35;32.50;57.80
22795;DHT22;11564;50.920;11.612;2023-07-02T15:12:01;31.00;58.30
22795;DHT22;11564;50.920;11.612;2023-07-02T15:14:26;28.40;61.00
22795;DHT22;11564;50.920;11.612;2023-07-02T15:16:52;29.10;60.50